createdAt,value
2019-05-21T00:00:29.738Z,4.11
2019-05-21T00:01:26.762Z,4.10
2019-05-21T00:02:23.677Z,4.11
2019-05-21T00:03:20.747Z,4.10
2019-05-21T00:04:27.973Z,4.11
2019-05-21T00:05:14.695Z,4.11
2019-05-21T00:06:11.814Z,4.11
2019-05-21T00:07:08.846Z,4.11
2019-05-21T00:08:05.839Z,4.11
2019-05-21T00:09:02.833Z,4.11
2019-05-21T00:09:59.801Z,4.11
2019-05-21T00:10:56.825Z,4.11
2019-05-21T00:11:53.875Z,4.10
2019-05-21T00:12:50.833Z,4.11
2019-05-21T00:13:47.821Z,4.11
2019-05-21T00:14:44.866Z,4.11
2019-05-21T00:15:41.890Z,4.10
2019-05-21T00:16:38.880Z,4.11
2019-05-21T00:17:35.904Z,4.10
2019-05-21T00:18:32.939Z,4.10
2019-05-21T00:19:29.859Z,4.10
2019-05-21T00:20:26.979Z,4.11
2019-05-21T00:21:23.929Z,4.10
2019-05-21T00:22:20.995Z,4.09
2019-05-21T00:23:17.924Z,4.11
2019-05-21T00:24:14.966Z,4.11
2019-05-21T00:25:11.988Z,4.11
2019-05-21T00:26:08.983Z,4.10
2019-05-21T00:27:05.941Z,4.11
2019-05-21T00:28:03.024Z,4.10
2019-05-21T00:29:00.011Z,4.10
2019-05-21T00:29:56.964Z,4.10
2019-05-21T00:30:54.018Z,4.10
2019-05-21T00:31:51.036Z,4.11
2019-05-21T00:32:48.066Z,4.10
2019-05-21T00:33:45.024Z,4.10
2019-05-21T00:34:44.299Z,4.10
2019-05-21T00:35:39.154Z,4.10
2019-05-21T00:36:36.102Z,4.10
2019-05-21T00:37:33.130Z,4.10
2019-05-21T00:38:30.114Z,4.10
2019-05-21T00:39:27.147Z,4.10
2019-05-21T00:40:24.065Z,4.10
2019-05-21T00:41:21.178Z,4.11
2019-05-21T00:42:18.175Z,4.10
2019-05-21T00:43:15.201Z,4.10
2019-05-21T00:44:12.137Z,4.10
2019-05-21T00:45:09.153Z,4.10
2019-05-21T00:46:06.300Z,4.10
2019-05-21T00:47:03.183Z,4.10
2019-05-21T00:48:00.169Z,4.10
2019-05-21T00:48:57.215Z,4.10
2019-05-21T00:49:54.341Z,4.10
2019-05-21T00:50:51.201Z,4.10
2019-05-21T00:51:48.311Z,4.10
2019-05-21T00:52:45.309Z,4.10
2019-05-21T00:53:42.301Z,4.10
2019-05-21T00:54:39.302Z,4.10
2019-05-21T00:55:36.255Z,4.10
2019-05-21T00:56:33.295Z,4.10
2019-05-21T00:57:30.211Z,4.10
2019-05-21T00:58:27.282Z,4.10
2019-05-21T00:59:24.294Z,4.10
2019-05-21T01:00:21.364Z,4.09
2019-05-21T01:01:18.304Z,4.10
2019-05-21T01:02:15.329Z,4.10
2019-05-21T01:03:12.441Z,4.09
2019-05-21T01:04:09.371Z,4.10
2019-05-21T01:05:06.312Z,4.10
2019-05-21T01:06:03.360Z,4.10
2019-05-21T01:07:00.521Z,4.10
2019-05-21T01:07:57.322Z,4.10
2019-05-21T01:08:54.358Z,4.09
2019-05-21T01:09:51.427Z,4.10
2019-05-21T01:10:48.417Z,4.09
2019-05-21T01:12:00.730Z,4.09
2019-05-21T01:12:42.424Z,4.09
2019-05-21T01:13:39.494Z,4.10
2019-05-21T01:14:36.526Z,4.10
2019-05-21T01:15:33.422Z,4.09
2019-05-21T01:16:30.588Z,4.10
2019-05-21T01:17:27.509Z,4.09
2019-05-21T01:18:24.416Z,4.09
2019-05-21T01:19:21.464Z,4.09
2019-05-21T01:20:18.530Z,4.09
2019-05-21T01:21:15.622Z,4.08
2019-05-21T01:22:12.489Z,4.09
2019-05-21T01:23:09.558Z,4.09
2019-05-21T01:24:06.579Z,4.09
2019-05-21T01:25:03.581Z,4.09
2019-05-21T01:26:00.720Z,4.09
2019-05-21T01:26:57.594Z,4.09
2019-05-21T01:27:54.603Z,4.09
2019-05-21T01:28:51.531Z,4.09
2019-05-21T01:29:48.602Z,4.09
2019-05-21T01:30:45.691Z,4.09
2019-05-21T01:31:42.740Z,4.09
2019-05-21T01:32:39.594Z,4.09
2019-05-21T01:33:36.659Z,4.09
2019-05-21T01:34:33.986Z,4.09
2019-05-21T01:35:30.724Z,4.09
2019-05-21T01:36:27.724Z,4.09
2019-05-21T01:37:24.679Z,4.09
2019-05-21T01:38:21.783Z,4.08
2019-05-21T01:39:18.669Z,4.09
2019-05-21T01:40:15.770Z,4.09
2019-05-21T01:41:12.703Z,4.09
2019-05-21T01:42:09.774Z,4.07
2019-05-21T01:43:06.801Z,4.09
2019-05-21T01:44:03.757Z,4.09
2019-05-21T01:45:00.789Z,4.08
2019-05-21T01:45:57.798Z,4.09
2019-05-21T01:46:54.728Z,4.09
2019-05-21T01:47:51.766Z,4.08
2019-05-21T01:48:48.818Z,4.08
2019-05-21T01:49:45.732Z,4.07
2019-05-21T01:50:42.804Z,4.08
2019-05-21T01:51:39.831Z,4.09
2019-05-21T01:52:36.901Z,4.08
2019-05-21T01:53:33.809Z,4.08
2019-05-21T01:54:30.849Z,4.09
2019-05-21T01:55:27.895Z,4.08
2019-05-21T01:56:24.801Z,4.09
2019-05-21T01:57:21.878Z,4.09
2019-05-21T01:58:18.894Z,4.08
2019-05-21T01:59:15.904Z,4.08
2019-05-21T02:00:12.846Z,4.09
2019-05-21T02:01:09.924Z,4.08
2019-05-21T02:02:06.927Z,4.09
2019-05-21T02:03:04.052Z,4.08
2019-05-21T02:04:00.982Z,4.08
2019-05-21T02:04:57.964Z,4.08
2019-05-21T02:05:54.985Z,4.08
2019-05-21T02:06:52.021Z,4.07
2019-05-21T02:07:48.912Z,4.08
2019-05-21T02:08:45.996Z,4.08
2019-05-21T02:09:43.012Z,4.07
2019-05-21T02:10:40.036Z,4.08
2019-05-21T02:11:37.130Z,4.08
2019-05-21T02:12:34.030Z,4.09
2019-05-21T02:13:30.989Z,4.08
2019-05-21T02:14:27.994Z,4.08
2019-05-21T02:15:25.036Z,4.07
2019-05-21T02:16:22.104Z,4.07
2019-05-21T02:17:19.007Z,4.08
2019-05-21T02:18:16.149Z,4.08
2019-05-21T02:19:13.084Z,4.08
2019-05-21T02:20:10.119Z,4.08
2019-05-21T02:21:07.056Z,4.08
2019-05-21T02:22:04.108Z,4.08
2019-05-21T02:23:01.149Z,4.07
2019-05-21T02:23:58.081Z,4.08
2019-05-21T02:24:55.141Z,4.07
2019-05-21T02:25:52.216Z,4.07
2019-05-21T02:26:49.186Z,4.07
2019-05-21T02:27:46.138Z,4.07
2019-05-21T02:28:43.246Z,4.07
2019-05-21T02:29:40.224Z,4.08
2019-05-21T02:30:37.220Z,4.06
2019-05-21T02:31:34.181Z,4.07
2019-05-21T02:32:31.323Z,4.07
2019-05-21T02:33:28.242Z,4.07
2019-05-21T02:34:25.194Z,4.08
2019-05-21T02:35:22.203Z,4.07
2019-05-21T02:36:19.252Z,4.07
2019-05-21T02:37:16.277Z,4.07
2019-05-21T02:38:13.215Z,4.07
2019-05-21T02:39:10.343Z,4.07
2019-05-21T02:40:07.359Z,4.07
2019-05-21T02:41:04.347Z,4.06
2019-05-21T02:42:01.262Z,4.07
2019-05-21T02:42:58.304Z,4.07
2019-05-21T02:43:55.426Z,4.07
2019-05-21T02:44:54.384Z,4.07
2019-05-21T02:45:49.323Z,4.07
2019-05-21T02:46:46.303Z,4.05
2019-05-21T02:47:43.429Z,4.07
2019-05-21T02:48:40.318Z,4.05
2019-05-21T02:49:37.445Z,4.07
2019-05-21T02:50:34.398Z,4.07
2019-05-21T02:51:31.445Z,4.06
2019-05-21T02:52:28.365Z,4.07
2019-05-21T02:53:25.425Z,4.07
2019-05-21T02:54:39.200Z,4.07
2019-05-21T02:55:19.520Z,4.07
2019-05-21T02:56:16.464Z,4.07
2019-05-21T02:57:13.491Z,4.07
2019-05-21T02:58:10.502Z,4.07
2019-05-21T02:59:07.484Z,4.07
2019-05-21T03:00:04.551Z,4.07
2019-05-21T03:01:01.510Z,4.06
2019-05-21T03:01:58.582Z,4.06
2019-05-21T03:02:55.565Z,4.07
2019-05-21T03:03:52.507Z,4.07
2019-05-21T03:04:49.638Z,4.07
2019-05-21T03:05:46.492Z,4.07
2019-05-21T03:06:43.560Z,4.06
2019-05-21T03:07:40.556Z,4.06
2019-05-21T03:08:37.594Z,4.05
2019-05-21T03:09:34.638Z,4.06
2019-05-21T03:10:31.594Z,4.07
2019-05-21T03:11:28.617Z,4.06
2019-05-21T03:12:25.683Z,4.05
2019-05-21T03:13:22.670Z,4.06
2019-05-21T03:14:19.623Z,4.06
2019-05-21T03:15:16.746Z,4.06
2019-05-21T03:16:13.607Z,4.06
2019-05-21T03:17:10.669Z,4.06
2019-05-21T03:18:07.697Z,4.06
2019-05-21T03:19:04.740Z,4.06
2019-05-21T03:20:01.678Z,4.07
2019-05-21T03:20:58.714Z,4.06
2019-05-21T03:21:55.773Z,4.06
2019-05-21T03:22:52.786Z,4.06
2019-05-21T03:23:49.690Z,4.05
2019-05-21T03:24:46.775Z,4.07
2019-05-21T03:25:43.860Z,4.05
2019-05-21T03:26:40.832Z,4.06
2019-05-21T03:27:37.732Z,4.06
2019-05-21T03:28:34.789Z,4.06
2019-05-21T03:29:31.844Z,4.05
2019-05-21T03:30:28.839Z,4.06
2019-05-21T03:31:25.902Z,4.06
2019-05-21T03:32:22.917Z,4.05
2019-05-21T03:33:19.904Z,4.05
2019-05-21T03:34:16.809Z,4.05
2019-05-21T03:35:13.836Z,4.06
2019-05-21T03:36:10.899Z,4.05
2019-05-21T03:37:07.811Z,4.05
2019-05-21T03:38:04.843Z,4.05
2019-05-21T03:39:01.963Z,4.05
2019-05-21T03:39:58.957Z,4.05
2019-05-21T03:40:55.874Z,4.05
2019-05-21T03:41:52.918Z,4.05
2019-05-21T03:42:49.971Z,4.05
2019-05-21T03:43:46.994Z,4.05
2019-05-21T03:44:58.839Z,4.06
2019-05-21T03:45:40.955Z,4.06
2019-05-21T03:46:38.019Z,4.05
2019-05-21T03:47:34.947Z,4.05
2019-05-21T03:48:31.976Z,4.06
2019-05-21T03:49:29.168Z,4.05
2019-05-21T03:50:26.120Z,4.05
2019-05-21T03:51:23.041Z,4.06
2019-05-21T03:52:19.981Z,4.05
2019-05-21T03:53:17.026Z,4.05
2019-05-21T03:54:14.048Z,4.05
2019-05-21T03:55:10.996Z,4.05
2019-05-21T03:56:08.124Z,4.05
2019-05-21T03:57:05.079Z,4.05
2019-05-21T03:58:02.053Z,4.05
2019-05-21T03:58:59.052Z,4.05
2019-05-21T03:59:56.096Z,4.05
2019-05-21T04:00:53.210Z,4.05
2019-05-21T04:01:50.096Z,4.05
2019-05-21T04:02:47.131Z,4.05
2019-05-21T04:03:44.134Z,4.05
2019-05-21T04:04:41.087Z,4.05
2019-05-21T04:05:38.142Z,4.05
2019-05-21T04:06:50.516Z,4.05
2019-05-21T04:07:32.215Z,4.05
2019-05-21T04:08:29.124Z,4.05
2019-05-21T04:09:26.191Z,4.05
2019-05-21T04:10:23.200Z,4.05
2019-05-21T04:11:20.238Z,4.05
2019-05-21T04:12:17.152Z,4.03
2019-05-21T04:13:14.248Z,4.05
2019-05-21T04:14:11.236Z,4.05
2019-05-21T04:15:08.183Z,4.05
2019-05-21T04:16:05.313Z,4.05
2019-05-21T04:17:02.251Z,4.05
2019-05-21T04:17:59.281Z,4.05
2019-05-21T04:18:56.270Z,4.05
2019-05-21T04:19:53.263Z,4.05
2019-05-21T04:20:50.305Z,4.05
2019-05-21T04:21:47.343Z,4.04
2019-05-21T04:22:44.373Z,4.05
2019-05-21T04:23:41.375Z,4.05
2019-05-21T04:24:38.385Z,4.04
2019-05-21T04:25:35.289Z,4.05
2019-05-21T04:26:32.405Z,4.05
2019-05-21T04:27:29.369Z,4.05
2019-05-21T04:28:26.493Z,4.05
2019-05-21T04:29:23.327Z,4.05
2019-05-21T04:30:20.384Z,4.05
2019-05-21T04:31:17.452Z,4.05
2019-05-21T04:32:14.547Z,4.03
2019-05-21T04:33:11.414Z,4.05
2019-05-21T04:34:08.410Z,4.05
2019-05-21T04:35:05.493Z,4.04
2019-05-21T04:36:02.522Z,4.05
2019-05-21T04:37:09.873Z,4.05
2019-05-21T04:37:56.731Z,4.04
2019-05-21T04:38:53.535Z,4.05
2019-05-21T04:39:50.439Z,4.05
2019-05-21T04:40:47.560Z,4.05
2019-05-21T04:41:44.766Z,4.03
2019-05-21T04:42:41.576Z,4.04
2019-05-21T04:43:38.520Z,4.05
2019-05-21T04:44:35.534Z,4.04
2019-05-21T04:45:32.651Z,4.05
2019-05-21T04:46:29.622Z,4.05
2019-05-21T04:47:26.621Z,4.04
2019-05-21T04:48:23.559Z,4.05
2019-05-21T04:49:20.620Z,4.05
2019-05-21T04:50:17.577Z,4.05
2019-05-21T04:51:14.618Z,4.05
2019-05-21T04:52:11.620Z,4.05
2019-05-21T04:53:08.643Z,4.04
2019-05-21T04:54:05.618Z,4.05
2019-05-21T04:55:02.617Z,4.05
2019-05-21T04:55:59.683Z,4.05
2019-05-21T04:56:56.736Z,4.04
2019-05-21T04:57:53.721Z,4.05
2019-05-21T04:58:50.713Z,4.05
2019-05-21T04:59:47.705Z,4.05
2019-05-21T05:00:44.640Z,4.05
2019-05-21T05:01:41.682Z,4.05
2019-05-21T05:02:38.805Z,4.05
2019-05-21T05:03:35.793Z,4.05
2019-05-21T05:04:32.724Z,4.07
2019-05-21T05:05:29.770Z,4.06
2019-05-21T05:06:26.764Z,4.05
2019-05-21T05:07:28.463Z,4.05
2019-05-21T05:08:20.782Z,4.05
2019-05-21T05:09:17.834Z,4.06
2019-05-21T05:10:14.808Z,4.04
2019-05-21T05:11:11.834Z,4.05
2019-05-21T05:12:08.787Z,4.05
2019-05-21T05:13:05.919Z,4.06
2019-05-21T05:14:02.981Z,4.07
2019-05-21T05:14:59.801Z,4.06
2019-05-21T05:15:56.834Z,4.06
2019-05-21T05:16:53.866Z,4.07
2019-05-21T05:17:50.902Z,4.07
2019-05-21T05:18:47.841Z,4.06
2019-05-21T05:19:44.936Z,4.05
2019-05-21T05:20:41.917Z,4.05
2019-05-21T05:21:38.944Z,4.05
2019-05-21T05:22:35.992Z,4.05
2019-05-21T05:23:32.943Z,4.05
2019-05-21T05:24:30.018Z,4.06
2019-05-21T05:25:26.906Z,4.06
2019-05-21T05:26:23.939Z,4.05
2019-05-21T05:27:21.014Z,4.06
2019-05-21T05:28:18.000Z,4.05
2019-05-21T05:29:14.946Z,4.05
2019-05-21T05:30:12.025Z,4.06
2019-05-21T05:31:09.019Z,4.06
2019-05-21T05:32:06.044Z,4.07
2019-05-21T05:33:02.994Z,4.06
2019-05-21T05:34:00.120Z,4.07
2019-05-21T05:34:57.109Z,4.09
2019-05-21T05:35:54.043Z,4.07
2019-05-21T05:36:51.050Z,4.07
2019-05-21T05:37:48.914Z,4.07
2019-05-21T05:38:45.035Z,4.09
2019-05-21T05:39:42.092Z,4.07
2019-05-21T05:40:39.126Z,4.09
2019-05-21T05:41:36.132Z,4.03
2019-05-21T05:42:33.086Z,4.07
2019-05-21T05:43:30.122Z,4.07
2019-05-21T05:44:27.141Z,4.07
2019-05-21T05:45:24.214Z,4.06
2019-05-21T05:46:21.118Z,4.07
2019-05-21T05:47:18.168Z,4.06
2019-05-21T05:48:15.285Z,4.06
2019-05-21T05:49:12.720Z,4.07
2019-05-21T05:50:09.164Z,4.07
2019-05-21T05:51:06.207Z,4.08
2019-05-21T05:52:03.358Z,4.06
2019-05-21T05:53:00.206Z,4.08
2019-05-21T05:53:57.225Z,4.07
2019-05-21T05:54:54.276Z,4.06
2019-05-21T05:55:51.321Z,4.07
2019-05-21T05:56:48.342Z,4.07
2019-05-21T05:57:45.297Z,4.07
2019-05-21T05:58:42.310Z,4.06
2019-05-21T05:59:39.219Z,4.07
2019-05-21T06:00:36.354Z,4.06
2019-05-21T06:01:33.387Z,4.07
2019-05-21T06:02:30.354Z,4.06
2019-05-21T06:03:27.309Z,4.07
2019-05-21T06:04:24.331Z,4.07
2019-05-21T06:05:21.343Z,4.09
2019-05-21T06:06:18.289Z,4.07
2019-05-21T06:07:15.362Z,4.07
2019-05-21T06:08:12.443Z,4.07
2019-05-21T06:09:09.491Z,4.07
2019-05-21T06:10:06.330Z,4.07
2019-05-21T06:11:03.409Z,4.07
2019-05-21T06:12:00.424Z,4.07
2019-05-21T06:12:57.454Z,4.06
2019-05-21T06:13:54.466Z,4.08
2019-05-21T06:14:51.454Z,4.07
2019-05-21T06:15:48.554Z,4.06
2019-05-21T06:16:45.486Z,4.08
2019-05-21T06:17:42.459Z,4.10
2019-05-21T06:18:39.557Z,4.07
2019-05-21T06:19:36.517Z,4.09
2019-05-21T06:20:33.430Z,4.09
2019-05-21T06:21:30.505Z,4.10
2019-05-21T06:22:27.601Z,4.09
2019-05-21T06:23:24.545Z,4.09
2019-05-21T06:24:21.500Z,4.08
2019-05-21T06:25:18.696Z,4.12
2019-05-21T06:26:15.601Z,4.10
2019-05-21T06:27:12.597Z,4.10
2019-05-21T06:28:09.576Z,4.09
2019-05-21T06:29:06.584Z,4.10
2019-05-21T06:30:03.601Z,4.12
2019-05-21T06:31:00.580Z,4.09
2019-05-21T06:31:57.577Z,4.10
2019-05-21T06:32:54.613Z,4.10
2019-05-21T06:33:51.744Z,4.10
2019-05-21T06:34:48.891Z,4.14
2019-05-21T06:35:45.725Z,4.15
2019-05-21T06:36:42.660Z,4.16
2019-05-21T06:37:39.616Z,4.16
2019-05-21T06:38:36.674Z,4.16
2019-05-21T06:39:33.764Z,4.16
2019-05-21T06:40:30.736Z,4.16
2019-05-21T06:41:27.652Z,4.17
2019-05-21T06:42:24.723Z,4.16
2019-05-21T06:43:21.764Z,4.18
2019-05-21T06:44:18.666Z,4.17
2019-05-21T06:45:15.700Z,4.17
2019-05-21T06:46:12.740Z,4.16
2019-05-21T06:47:09.810Z,4.08
2019-05-21T06:48:06.704Z,4.14
2019-05-21T06:49:03.757Z,4.15
2019-05-21T06:50:00.872Z,4.14
2019-05-21T06:50:57.866Z,4.12
2019-05-21T06:51:54.753Z,4.13
2019-05-21T06:52:51.894Z,4.16
2019-05-21T06:53:48.871Z,4.16
2019-05-21T06:54:45.857Z,4.18
2019-05-21T06:55:42.840Z,4.18
2019-05-21T06:56:39.870Z,4.18
2019-05-21T06:57:37.003Z,4.18
2019-05-21T06:58:33.899Z,4.18
2019-05-21T06:59:31.056Z,4.18
2019-05-21T07:00:27.935Z,4.16
2019-05-21T07:01:28.851Z,4.18
2019-05-21T07:02:21.915Z,4.15
2019-05-21T07:03:18.982Z,4.18
2019-05-21T07:04:15.999Z,4.18
2019-05-21T07:05:12.954Z,4.15
2019-05-21T07:06:09.913Z,4.18
2019-05-21T07:07:06.879Z,4.15
2019-05-21T07:08:04.017Z,4.17
2019-05-21T07:09:00.966Z,4.19
2019-05-21T07:09:58.041Z,4.19
2019-05-21T07:10:54.990Z,4.19
2019-05-21T07:11:52.022Z,4.20
2019-05-21T07:12:48.961Z,4.20
2019-05-21T07:13:46.086Z,4.21
2019-05-21T07:14:43.079Z,4.21
2019-05-21T07:15:39.997Z,4.21
2019-05-21T07:16:37.010Z,4.21
2019-05-21T07:17:34.085Z,4.21
2019-05-21T07:18:31.000Z,4.21
2019-05-21T07:19:28.057Z,4.21
2019-05-21T07:20:25.146Z,4.21
2019-05-21T07:21:22.148Z,4.21
2019-05-21T07:22:19.071Z,4.21
2019-05-21T07:23:16.106Z,4.17
2019-05-21T07:24:13.189Z,4.16
2019-05-21T07:25:10.228Z,4.18
2019-05-21T07:26:07.078Z,4.22
2019-05-21T07:27:04.155Z,4.21
2019-05-21T07:28:01.192Z,4.21
2019-05-21T07:28:58.300Z,4.22
2019-05-21T07:29:55.140Z,4.23
2019-05-21T07:30:52.250Z,4.23
2019-05-21T07:31:49.242Z,4.22
2019-05-21T07:32:46.178Z,4.23
2019-05-21T07:33:43.172Z,4.23
2019-05-21T07:34:40.295Z,4.23
2019-05-21T07:35:37.234Z,4.23
2019-05-21T07:36:34.230Z,4.23
2019-05-21T07:37:31.219Z,4.23
2019-05-21T07:38:28.299Z,4.23
2019-05-21T07:39:25.284Z,4.23
2019-05-21T07:40:22.366Z,4.23
2019-05-21T07:41:20.308Z,4.23
2019-05-21T07:42:16.325Z,4.23
2019-05-21T07:43:13.276Z,4.23
2019-05-21T07:44:10.373Z,4.23
2019-05-21T07:45:07.315Z,4.23
2019-05-21T07:46:04.344Z,4.23
2019-05-21T07:47:01.331Z,4.23
2019-05-21T07:47:58.435Z,4.23
2019-05-21T07:48:55.384Z,4.23
2019-05-21T07:49:52.341Z,4.23
2019-05-21T07:50:49.430Z,4.23
2019-05-21T07:51:46.474Z,4.23
2019-05-21T07:52:43.457Z,4.23
2019-05-21T07:53:40.381Z,4.23
2019-05-21T07:54:37.468Z,4.23
2019-05-21T07:55:34.917Z,4.23
2019-05-21T07:56:31.457Z,4.23
2019-05-21T07:57:28.443Z,4.23
2019-05-21T07:58:25.435Z,4.23
2019-05-21T07:59:22.554Z,4.23
2019-05-21T08:00:19.445Z,4.23
2019-05-21T08:01:16.455Z,4.23
2019-05-21T08:02:13.514Z,4.23
2019-05-21T08:03:10.621Z,4.23
2019-05-21T08:04:07.491Z,4.23
2019-05-21T08:05:04.635Z,4.23
2019-05-21T08:06:01.625Z,4.23
2019-05-21T08:06:58.566Z,4.23
2019-05-21T08:07:55.537Z,4.23
2019-05-21T08:09:09.655Z,4.23
2019-05-21T08:09:49.611Z,4.23
2019-05-21T08:10:46.607Z,4.23
2019-05-21T08:11:46.720Z,4.23
2019-05-21T08:12:40.608Z,4.24
2019-05-21T08:13:37.523Z,4.23
2019-05-21T08:14:34.565Z,4.24
2019-05-21T08:15:31.598Z,4.24
2019-05-21T08:16:28.648Z,4.24
2019-05-21T08:17:25.571Z,4.23
2019-05-21T08:18:22.639Z,4.23
2019-05-21T08:19:19.650Z,4.23
2019-05-21T08:20:16.591Z,4.23
2019-05-21T08:21:13.813Z,4.23
2019-05-21T08:22:10.692Z,4.23
2019-05-21T08:23:07.689Z,4.23
2019-05-21T08:24:04.732Z,4.23
2019-05-21T08:25:01.676Z,4.23
2019-05-21T08:25:58.624Z,4.23
2019-05-21T08:26:55.645Z,4.23
2019-05-21T08:27:52.708Z,4.23
2019-05-21T08:28:49.724Z,4.23
2019-05-21T08:29:46.747Z,4.23
2019-05-21T08:30:43.784Z,4.23
2019-05-21T08:31:40.804Z,4.23
2019-05-21T08:32:37.798Z,4.23
2019-05-21T08:33:34.823Z,4.23
2019-05-21T08:34:31.815Z,4.23
2019-05-21T08:35:28.770Z,4.23
2019-05-21T08:36:25.819Z,4.23
2019-05-21T08:37:22.745Z,4.23
2019-05-21T08:38:19.775Z,4.23
2019-05-21T08:39:28.400Z,4.24
2019-05-21T08:40:13.891Z,4.24
2019-05-21T08:41:10.884Z,4.24
2019-05-21T08:42:07.830Z,4.23
2019-05-21T08:43:04.897Z,4.23
2019-05-21T08:44:01.901Z,4.23
2019-05-21T08:44:58.920Z,4.23
2019-05-21T08:45:55.910Z,4.24
2019-05-21T08:46:52.992Z,4.23
2019-05-21T08:47:49.844Z,4.24
2019-05-21T08:48:46.884Z,4.24
2019-05-21T08:49:44.374Z,4.23
2019-05-21T08:50:40.965Z,4.23
2019-05-21T08:51:37.988Z,4.23
2019-05-21T08:52:34.966Z,4.23
2019-05-21T08:53:32.002Z,4.23
2019-05-21T08:54:29.041Z,4.23
2019-05-21T08:55:26.027Z,4.23
2019-05-21T08:56:22.992Z,4.23
2019-05-21T08:57:20.107Z,4.24
2019-05-21T08:58:16.953Z,4.24
2019-05-21T08:59:14.030Z,4.23
2019-05-21T09:00:11.070Z,4.24
2019-05-21T09:01:07.968Z,4.24
2019-05-21T09:02:05.093Z,4.23
2019-05-21T09:03:02.073Z,4.23
2019-05-21T09:03:59.074Z,4.24
2019-05-21T09:04:56.147Z,4.24
2019-05-21T09:05:53.132Z,4.23
2019-05-21T09:06:50.177Z,4.24
2019-05-21T09:07:53.002Z,4.23
2019-05-21T09:08:44.112Z,4.23
2019-05-21T09:09:50.131Z,4.23
2019-05-21T09:10:38.168Z,4.23
2019-05-21T09:11:35.082Z,4.23
2019-05-21T09:12:32.230Z,4.24
2019-05-21T09:13:29.179Z,4.23
2019-05-21T09:14:26.177Z,4.24
2019-05-21T09:15:23.111Z,4.24
2019-05-21T09:16:20.180Z,4.24
2019-05-21T09:17:17.275Z,4.24
2019-05-21T09:18:14.138Z,4.23
2019-05-21T09:19:11.319Z,4.24
2019-05-21T09:20:08.255Z,4.23
2019-05-21T09:21:05.248Z,4.24
2019-05-21T09:22:02.184Z,4.24
2019-05-21T09:22:59.232Z,4.24
2019-05-21T09:23:56.280Z,4.23
2019-05-21T09:24:53.297Z,4.23
2019-05-21T09:25:50.274Z,4.24
2019-05-21T09:26:47.262Z,4.25
2019-05-21T09:27:44.377Z,4.24
2019-05-21T09:28:41.331Z,4.23
2019-05-21T09:29:38.276Z,4.23
2019-05-21T09:30:35.307Z,4.23
2019-05-21T09:31:32.425Z,4.24
2019-05-21T09:32:29.774Z,4.24
2019-05-21T09:33:26.366Z,4.23
2019-05-21T09:34:23.351Z,4.23
2019-05-21T09:35:20.388Z,4.24
2019-05-21T09:36:17.360Z,4.24
2019-05-21T09:37:19.558Z,4.23
2019-05-21T09:38:11.443Z,4.23
2019-05-21T09:39:08.444Z,4.24
2019-05-21T09:40:05.471Z,4.24
2019-05-21T09:41:02.497Z,4.24
2019-05-21T09:41:59.482Z,4.23
2019-05-21T09:42:56.392Z,4.24
2019-05-21T09:43:53.453Z,4.24
2019-05-21T09:44:50.469Z,4.23
2019-05-21T09:45:47.589Z,4.23
2019-05-21T09:46:44.467Z,4.24
2019-05-21T09:47:41.503Z,4.23
2019-05-21T09:48:38.506Z,4.23
2019-05-21T09:49:35.585Z,4.23
2019-05-21T09:50:32.518Z,4.23
2019-05-21T09:51:29.529Z,4.23
2019-05-21T09:52:26.483Z,4.23
2019-05-21T09:53:23.574Z,4.23
2019-05-21T09:54:20.528Z,4.23
2019-05-21T09:55:17.602Z,4.23
2019-05-21T09:56:14.893Z,4.23
2019-05-21T09:57:11.621Z,4.23
2019-05-21T09:58:08.666Z,4.23
2019-05-21T09:59:05.650Z,4.23
2019-05-21T10:00:03.348Z,4.23
2019-05-21T10:00:59.679Z,4.23
2019-05-21T10:01:56.620Z,4.23
2019-05-21T10:02:53.751Z,4.23
2019-05-21T10:03:50.597Z,4.23
2019-05-21T10:04:47.632Z,4.23
2019-05-21T10:05:44.705Z,4.23
2019-05-21T10:06:41.804Z,4.23
2019-05-21T10:07:40.564Z,4.23
2019-05-21T10:08:37.307Z,4.23
2019-05-21T10:09:32.720Z,4.24
2019-05-21T10:10:29.792Z,4.23
2019-05-21T10:11:26.723Z,4.23
2019-05-21T10:12:23.725Z,4.23
2019-05-21T10:13:20.846Z,4.23
2019-05-21T10:14:17.705Z,4.23
2019-05-21T10:15:14.769Z,4.23
2019-05-21T10:16:11.805Z,4.23
2019-05-21T10:17:08.845Z,4.23
2019-05-21T10:18:05.852Z,4.23
2019-05-21T10:19:02.903Z,4.23
2019-05-21T10:19:59.817Z,4.24
2019-05-21T10:20:56.894Z,4.23
2019-05-21T10:21:56.779Z,4.23
2019-05-21T10:22:50.914Z,4.23
2019-05-21T10:23:47.898Z,4.24
2019-05-21T10:24:44.837Z,4.23
2019-05-21T10:25:41.877Z,4.23
2019-05-21T10:26:38.961Z,4.23
2019-05-21T10:27:36.050Z,4.24
2019-05-21T10:28:32.944Z,4.23
2019-05-21T10:29:29.834Z,4.23
2019-05-21T10:30:26.854Z,4.23
2019-05-21T10:31:23.859Z,4.23
2019-05-21T10:32:20.935Z,4.23
2019-05-21T10:33:17.971Z,4.23
2019-05-21T10:34:14.985Z,4.23
2019-05-21T10:35:11.945Z,4.23
2019-05-21T10:36:09.030Z,4.23
2019-05-21T10:37:06.101Z,4.23
2019-05-21T10:38:03.044Z,4.23
2019-05-21T10:39:00.085Z,4.23
2019-05-21T10:39:56.992Z,4.23
2019-05-21T10:40:54.043Z,4.24
2019-05-21T10:41:50.983Z,4.23
2019-05-21T10:42:48.042Z,4.23
2019-05-21T10:43:45.158Z,4.23
2019-05-21T10:44:42.115Z,4.23
2019-05-21T10:45:39.008Z,4.23
2019-05-21T10:46:36.086Z,4.23
2019-05-21T10:47:33.094Z,4.23
2019-05-21T10:48:30.221Z,4.23
2019-05-21T10:49:27.077Z,4.23
2019-05-21T10:50:24.112Z,4.23
2019-05-21T10:51:21.235Z,4.24
2019-05-21T10:52:18.126Z,4.24
2019-05-21T10:53:15.124Z,4.23
2019-05-21T10:54:12.155Z,4.23
2019-05-21T10:55:09.188Z,4.23
2019-05-21T10:56:06.118Z,4.23
2019-05-21T10:57:03.106Z,4.23
2019-05-21T10:58:00.222Z,4.23
2019-05-21T10:58:57.147Z,4.23
2019-05-21T10:59:54.206Z,4.23
2019-05-21T11:00:51.204Z,4.23
2019-05-21T11:01:48.254Z,4.23
2019-05-21T11:02:45.174Z,4.23
2019-05-21T11:03:42.297Z,4.23
2019-05-21T11:04:39.184Z,4.24
2019-05-21T11:05:36.410Z,4.23
2019-05-21T11:06:33.260Z,4.23
2019-05-21T11:07:30.277Z,4.23
2019-05-21T11:08:27.301Z,4.23
2019-05-21T11:09:24.329Z,4.24
2019-05-21T11:10:21.310Z,4.23
2019-05-21T11:11:21.273Z,4.23
2019-05-21T11:12:15.418Z,4.23
2019-05-21T11:13:12.367Z,4.23
2019-05-21T11:14:09.352Z,4.23
2019-05-21T11:15:06.376Z,4.23
2019-05-21T11:16:03.524Z,4.24
2019-05-21T11:17:00.335Z,4.23
2019-05-21T11:18:09.814Z,4.23
2019-05-21T11:18:54.486Z,4.23
2019-05-21T11:19:51.422Z,4.23
2019-05-21T11:20:48.417Z,4.23
2019-05-21T11:21:45.452Z,4.23
2019-05-21T11:22:42.486Z,4.24
2019-05-21T11:23:39.481Z,4.23
2019-05-21T11:24:36.485Z,4.24
2019-05-21T11:25:33.544Z,4.23
2019-05-21T11:26:30.606Z,4.23
2019-05-21T11:27:27.434Z,4.23
2019-05-21T11:28:24.555Z,4.23
2019-05-21T11:29:21.606Z,4.23
2019-05-21T11:30:18.460Z,4.23
2019-05-21T11:31:15.508Z,4.23
2019-05-21T11:32:12.548Z,4.23
2019-05-21T11:33:09.590Z,4.23
2019-05-21T11:34:06.513Z,4.23
2019-05-21T11:35:03.746Z,4.23
2019-05-21T11:36:00.559Z,4.23
2019-05-21T11:36:57.600Z,4.23
2019-05-21T11:37:54.557Z,4.23
2019-05-21T11:38:51.660Z,4.23
2019-05-21T11:39:48.618Z,4.23
2019-05-21T11:40:50.776Z,4.23
2019-05-21T11:41:42.624Z,4.23
2019-05-21T11:42:39.709Z,4.23
2019-05-21T11:43:36.702Z,4.23
2019-05-21T11:44:33.679Z,4.24
2019-05-21T11:45:32.672Z,4.23
2019-05-21T11:46:27.670Z,4.23
2019-05-21T11:47:24.708Z,4.23
2019-05-21T11:48:21.677Z,4.23
2019-05-21T11:49:18.830Z,4.23
2019-05-21T11:50:15.809Z,4.23
2019-05-21T11:51:13.020Z,4.23
2019-05-21T11:52:09.689Z,4.23
2019-05-21T11:53:06.729Z,4.23
2019-05-21T11:54:03.848Z,4.23
2019-05-21T11:55:00.749Z,4.23
2019-05-21T11:55:57.761Z,4.24
2019-05-21T11:56:54.700Z,4.23
2019-05-21T11:57:51.909Z,4.23
2019-05-21T11:58:48.853Z,4.23
2019-05-21T11:59:45.881Z,4.23
2019-05-21T12:00:42.859Z,4.23
2019-05-21T12:01:39.843Z,4.23
2019-05-21T12:02:36.795Z,4.23
2019-05-21T12:03:33.875Z,4.23
2019-05-21T12:04:30.956Z,4.23
2019-05-21T12:05:27.795Z,4.23
2019-05-21T12:06:24.936Z,4.23
2019-05-21T12:07:21.917Z,4.23
2019-05-21T12:08:18.951Z,4.23
2019-05-21T12:09:15.942Z,4.23
2019-05-21T12:10:12.890Z,4.23
2019-05-21T12:11:10.109Z,4.23
2019-05-21T12:12:06.863Z,4.23
2019-05-21T12:13:03.972Z,4.23
2019-05-21T12:14:00.971Z,4.23
2019-05-21T12:14:57.991Z,4.23
2019-05-21T12:15:54.948Z,4.23
2019-05-21T12:16:51.962Z,4.23
2019-05-21T12:17:49.027Z,4.23
2019-05-21T12:18:46.021Z,4.23
2019-05-21T12:19:42.993Z,4.23
2019-05-21T12:20:40.083Z,4.23
2019-05-21T12:21:37.041Z,4.23
2019-05-21T12:22:34.046Z,4.23
2019-05-21T12:23:31.004Z,4.23
2019-05-21T12:24:28.078Z,4.23
2019-05-21T12:25:24.987Z,4.23
2019-05-21T12:26:22.099Z,4.23
2019-05-21T12:27:19.093Z,4.23
2019-05-21T12:28:16.089Z,4.23
2019-05-21T12:29:13.026Z,4.24
2019-05-21T12:30:10.149Z,4.23
2019-05-21T12:31:07.136Z,4.23
2019-05-21T12:32:04.243Z,4.23
2019-05-21T12:33:01.112Z,4.23
2019-05-21T12:33:58.150Z,4.23
2019-05-21T12:34:55.186Z,4.23
2019-05-21T12:35:52.091Z,4.24
2019-05-21T12:36:49.134Z,4.23
2019-05-21T12:37:46.260Z,4.24
2019-05-21T12:38:43.232Z,4.23